Airfield :
LOGIN :

Register | Disclaimer

   EN    FR    IT 

 










Legend :    VFR   Marginal VFR   IFR   Intensive IFR   Very Intensive IFR
Visi :
Ceiling :
>= 8 km
>= 3000ft
5 to 8 km
1000 to 3000 ft
1500m to 5 km
500 to 1000 ft
800 to 1500m
200 to 500 ft
< 800m
< 200 ft
Symbols :   Thunderstorms  Fog  Heavy snow  Heavy precipitations  Wind > 20 kt
SIGMETs :     Misc.  Thunderstorms  Icing  Turbulence  Mountain Waves  Volcanic Ashes







- Airport Elevation : 1959 ft
- IATA code : HOQ


EDQM - Hof Plauen

EXPIRED METARs :
  • 201650Z 14004KT 110V170 9999 -SN OVC012 M01/M02 Q1001
  • 201620Z 14004KT 9999 BKN012 M01/M02 Q1001 RESN

TAF TAF EDQM
Valid from the 20 at 18:00 until the 21 at 03:00 UTC


201700Z 2018/2103 14005KT 6000 SCT008 OVC012
BECMG 2018/2020 2500 -SN OVC007
TEMPO 2019/2103 1000 SN BKN002
No reported NOTAMs for that airfield.
1 SIGMET reported for the München FIR (EDMM) :
 
Severe icing
EDMM SIGMET 1 VALID 201700/201900 EDZM
EDMM MUNCHEN FIR SEV ICE FCST SW OF LINE N4800 E00935 - N4732 E01035 FL100/180 NC FCST AT 1900Z SW OF LINE N4800 E00935 - N4731 E01035=



MET'MAP, your aeronautical weather chart ! - Copyright ORBIFLY December 2007 - Disclaimer

ORBIFLY MET'MAP TEAM :

Programming & Development : Alexandra Zaïnal
Concept & Development : Baudouin d'Aumeries
Co-Development & Prog : Marc-Olivier Méhu
Technical & hardware support : Manuel Goepfert

Contact : metmap@orbifly.com




SOURCES & CREDITS :

   NOAA